Hunter M — WDE8140 — position and weather

sailwx.info

Track history (hours):
 
Tides and Currents Weather Stations Pressure Air Temp Water Temp Dewpoint Dewpoint Depression Visibility Wind Speed Wind Dir Waves Ship Positions

Hunter M

Owner: G & H Towing Company, Galveston, TX. More information available from US FCC via Universal Licensing System and Coast Guard Vessel Documentation Center.

Last reported at 2018-Jun-25 17:30 UTC. Time now 2018-Jun-25 17:50 UTC.
Position N 29°35' W 094°56'.

Length 30 m; draft 6.2 m.

Type: Tug. MMSI: 367402050.

Date/timePositionNaut miles runAvg speedWind from/ knotsBaromVisibWave heightAir tempDewpointWater temp
2018-Jun-25 17:30N 29°35' W 094°56'610.7
2018-Jun-25 16:58N 29°30' W 094°52'610.5
2018-Jun-25 16:22N 29°24' W 094°49'3 4.0
2018-Jun-25 15:42N 29°23' W 094°52'1 5.1
2018-Jun-25 15:30N 29°23' W 094°53'1 1.1
2018-Jun-25 14:57N 29°23' W 094°53'0 0.0
2018-Jun-25 14:29N 29°23' W 094°53'0 0.3
2018-Jun-25 13:47N 29°23' W 094°53'310.0
2018-Jun-25 13:30N 29°22' W 094°50'4 8.0
2018-Jun-25 13:00N 29°19' W 094°47'0 0.0
2018-Jun-25 12:26N 29°19' W 094°47'0 0.2
2018-Jun-25 12:00N 29°19' W 094°47'1 2.3
2018-Jun-25 11:30N 29°19' W 094°48'0 0.0
2018-Jun-25 11:00N 29°19' W 094°48'1 1.9
2018-Jun-25 10:30N 29°19' W 094°47'0 0.7
2018-Jun-25 10:00N 29°19' W 094°47'2 4.1
2018-Jun-25 09:28N 29°21' W 094°47'14 9.5
2018-Jun-25 07:57N 29°34' W 094°55'4 9.4
2018-Jun-25 07:30N 29°37' W 094°59'2 3.9
2018-Jun-25 07:00N 29°37' W 095°01'0 0.0
2018-Jun-25 06:30N 29°37' W 095°01'0 0.0
2018-Jun-25 06:00N 29°37' W 095°01'0 0.0
2018-Jun-25 05:30N 29°37' W 095°01'0 0.0
2018-Jun-25 05:00N 29°37' W 095°01'0 0.1
2018-Jun-25 04:30N 29°37' W 095°01'0 0.5
2018-Jun-25 04:00N 29°37' W 095°01'1 2.5
2018-Jun-25 03:30N 29°37' W 094°60'0 0.0
2018-Jun-25 03:00N 29°37' W 094°60'0 0.0
2018-Jun-25 02:30N 29°37' W 094°60'0 0.0
2018-Jun-25 02:00N 29°37' W 094°60'1 1.2
2018-Jun-25 01:30N 29°37' W 094°59'1 2.5
2018-Jun-25 01:00N 29°37' W 095°01'0 1.0
2018-Jun-25 00:30N 29°37' W 095°01'0 0.0
2018-Jun-24 23:59N 29°37' W 095°01'1 1.6
2018-Jun-24 23:30N 29°37' W 095°00'0 0.1
2018-Jun-24 23:00N 29°37' W 095°00'1 1.7
2018-Jun-24 22:30N 29°37' W 095°01'2 3.9
2018-Jun-24 22:00N 29°37' W 094°59'0 0.3
2018-Jun-24 21:27N 29°37' W 094°59'2 3.7
2018-Jun-24 21:00N 29°37' W 095°01'0 0.0
2018-Jun-24 20:30N 29°37' W 095°01'0 0.0
2018-Jun-24 20:00N 29°37' W 095°01'0 0.8
2018-Jun-24 19:30N 29°37' W 095°02'1 2.7
2018-Jun-24 18:59N 29°37' W 094°60'0 0.0
2018-Jun-24 18:29N 29°37' W 094°60'0 0.0
2018-Jun-24 17:59N 29°37' W 094°60'0 0.0
2018-Jun-24 17:29N 29°37' W 094°60'0 0.0
2018-Jun-24 16:59N 29°37' W 094°60'0 0.0
2018-Jun-24 16:29N 29°37' W 094°60'0 0.1
2018-Jun-24 16:01N 29°37' W 095°00'1 1.1
2018-Jun-24 15:30N 29°37' W 095°01'0 0.4
2018-Jun-24 15:01N 29°37' W 095°00'0 0.8
2018-Jun-24 14:28N 29°37' W 094°60'0 0.0
2018-Jun-24 13:58N 29°37' W 094°60'0 0.0
2018-Jun-24 13:28N 29°37' W 094°60'0 0.0
2018-Jun-24 12:55N 29°37' W 094°60'2 4.5
2018-Jun-24 12:30N 29°37' W 094°58'2 4.0
2018-Jun-24 12:00N 29°37' W 095°00'0 0.1
2018-Jun-24 11:30N 29°37' W 095°00'0 0.0
2018-Jun-24 11:01N 29°37' W 095°00'0 0.1
2018-Jun-24 10:30N 29°37' W 095°00'3 5.2
2018-Jun-24 09:59N 29°39' W 094°58'4 0.3
2018-Jun-23 21:29N 29°42' W 095°01'2 2.8
2018-Jun-23 20:53N 29°41' W 094°59'0 0.0
2018-Jun-23 19:59N 29°41' W 094°59'2 3.2
2018-Jun-23 19:29N 29°40' W 094°58'3 4.9
2018-Jun-23 18:50N 29°37' W 094°59'0 0.1
2018-Jun-23 18:28N 29°37' W 094°59'1 2.9
2018-Jun-23 18:00N 29°37' W 094°58'2 3.6
2018-Jun-23 17:30N 29°37' W 094°60'1 2.7
2018-Jun-23 17:00N 29°37' W 094°58'5 1.6
2018-Jun-23 14:08N 29°42' W 094°59'1 4.0
2018-Jun-23 13:59N 29°41' W 094°60'0 0.1
2018-Jun-23 13:30N 29°41' W 094°60'1 1.6
2018-Jun-23 12:59N 29°41' W 094°59'1 0.8
2018-Jun-23 11:13N 29°41' W 095°00'1 4.3
2018-Jun-23 11:01N 29°41' W 094°59'0 0.1
2018-Jun-23 10:18N 29°41' W 094°59'1 1.6
2018-Jun-23 09:39N 29°41' W 095°01'0 0.4
2018-Jun-23 09:25N 29°41' W 095°00'1 2.5
2018-Jun-23 09:00N 29°41' W 094°59'0 0.8
2018-Jun-23 08:30N 29°41' W 094°59'1 0.8
2018-Jun-23 07:53N 29°41' W 094°59'0 0.9
2018-Jun-23 07:29N 29°41' W 094°59'1 2.4
2018-Jun-23 06:58N 29°41' W 095°00'1 2.6
2018-Jun-23 06:30N 29°42' W 095°01'1 0.8
2018-Jun-23 05:49N 29°42' W 095°01'0 0.0
2018-Jun-23 05:28N 29°42' W 095°01'0 0.0
2018-Jun-23 04:58N 29°42' W 095°01'0 0.0
2018-Jun-23 04:28N 29°42' W 095°01'0 0.0
2018-Jun-23 03:52N 29°42' W 095°01'0 0.0
2018-Jun-23 03:28N 29°42' W 095°01'0 0.0
2018-Jun-23 02:58N 29°42' W 095°01'0 0.0
2018-Jun-22 13:51N 29°42' W 095°01'2 5.4
2018-Jun-22 13:29N 29°41' W 094°59'0 0.5
2018-Jun-22 13:00N 29°41' W 094°60'0 0.0
2018-Jun-22 12:19N 29°41' W 094°60'0 0.0
2018-Jun-22 12:00N 29°41' W 094°60'4 6.5
2018-Jun-22 11:20N 29°37' W 094°58'1 3.0
2018-Jun-22 10:53N 29°37' W 094°59'0 0.3
2018-Jun-22 10:26N 29°37' W 094°59'2 3.6
2018-Jun-22 10:00N 29°37' W 094°58'3 5.8
2018-Jun-22 09:29N 29°37' W 095°01'0 0.0
2018-Jun-22 08:59N 29°37' W 095°01'0 0.0
2018-Jun-22 08:20N 29°37' W 095°01'0 0.0
2018-Jun-22 07:59N 29°37' W 095°01'0 0.0
2018-Jun-22 06:35N 29°37' W 095°01'0 0.0
2018-Jun-22 06:08N 29°37' W 095°01'0 0.0
2018-Jun-22 05:41N 29°37' W 095°01'0 0.0
2018-Jun-22 05:23N 29°37' W 095°01'0 0.0
2018-Jun-22 04:56N 29°37' W 095°01'0 0.0
2018-Jun-22 04:11N 29°37' W 095°01'0 0.0
2018-Jun-22 03:56N 29°37' W 095°01'0 0.0
2018-Jun-22 03:23N 29°37' W 095°01'0 0.8
2018-Jun-22 03:00N 29°37' W 095°01'1 0.9
2018-Jun-22 02:26N 29°37' W 095°01'1 1.3
2018-Jun-22 02:00N 29°37' W 095°01'1 1.4
2018-Jun-22 01:30N 29°37' W 095°00'5 6.4
2018-Jun-22 00:46N 29°34' W 094°56'1 3.3
2018-Jun-22 00:22N 29°33' W 094°55'0 0.4
2018-Jun-21 23:57N 29°33' W 094°55'4 3.3
2018-Jun-21 22:54N 29°30' W 094°52'4 9.4
2018-Jun-21 22:30N 29°27' W 094°51'5 9.6
2018-Jun-21 21:59N 29°22' W 094°48'2 3.8
2018-Jun-21 21:28N 29°22' W 094°51'2 4.7
2018-Jun-21 20:57N 29°23' W 094°53'0 0.3
2018-Jun-21 20:30N 29°23' W 094°53'1 2.0
2018-Jun-21 19:54N 29°23' W 094°52'3 6.5
2018-Jun-21 19:30N 29°22' W 094°49'3 5.1
2018-Jun-21 18:59N 29°20' W 094°46'1 2.3
2018-Jun-21 18:25N 29°19' W 094°47'0 0.0
2018-Jun-21 17:52N 29°19' W 094°47'2 4.8
2018-Jun-21 17:30N 29°21' W 094°47'18 9.5
2018-Jun-21 15:35N 29°37' W 094°57'110.3
2018-Jun-21 15:27N 29°38' W 094°58'3 0.8
2018-Jun-21 11:36N 29°41' W 094°59'0 5.6
2018-Jun-21 11:31N 29°41' W 094°59'7 1.2
2018-Jun-21 05:58N 29°45' W 095°06'5 0.7
2018-Jun-20 22:13N 29°42' W 095°01'2 7.9
2018-Jun-20 22:00N 29°41' W 094°59'0 0.3
2018-Jun-20 21:29N 29°41' W 094°59'2 3.8
2018-Jun-20 21:00N 29°39' W 094°58'2 1.3
2018-Jun-20 19:34N 29°41' W 094°60'1 7.3
2018-Jun-20 19:28N 29°41' W 094°59'5 9.4
2018-Jun-20 18:59N 29°36' W 094°57'3 5.6
2018-Jun-20 18:30N 29°37' W 095°00'0 0.3
2018-Jun-20 17:59N 29°37' W 095°00'1 1.2
2018-Jun-20 17:28N 29°37' W 095°01'0 0.0
2018-Jun-20 16:58N 29°37' W 095°01'0 0.0
2018-Jun-20 16:25N 29°37' W 095°01'1 3.1
2018-Jun-20 16:00N 29°37' W 094°60'4 6.4
2018-Jun-20 15:22N 29°41' W 094°60'1 1.0
2018-Jun-20 14:49N 29°41' W 095°00'0 0.8
2018-Jun-20 14:30N 29°41' W 095°00'2 3.7
2018-Jun-20 14:01N 29°40' W 094°58'2 3.1
2018-Jun-20 13:30N 29°41' W 094°60'0 0.0
2018-Jun-20 13:00N 29°41' W 094°60'0 0.0
2018-Jun-20 11:53N 29°41' W 094°60'0 0.1
2018-Jun-20 07:28N 29°41' W 094°59'0 0.0
2018-Jun-20 06:58N 29°41' W 094°59'0 0.0
2018-Jun-20 06:28N 29°41' W 094°59'0 0.0
2018-Jun-20 05:58N 29°41' W 094°59'0 0.0
2018-Jun-20 05:25N 29°41' W 094°59'0 0.0
2018-Jun-20 04:58N 29°41' W 094°59'0 1.0
2018-Jun-20 04:30N 29°41' W 094°59'1 2.2
2018-Jun-20 03:56N 29°41' W 095°00'1 1.7
2018-Jun-20 03:29N 29°41' W 094°59'0 0.0
2018-Jun-20 02:59N 29°41' W 094°59'0 0.0
2018-Jun-20 02:29N 29°41' W 094°59'0 0.0
2018-Jun-20 01:59N 29°41' W 094°59'0 0.0
2018-Jun-20 01:29N 29°41' W 094°59'0 0.0
2018-Jun-20 00:56N 29°41' W 094°59'1 2.0
2018-Jun-20 00:26N 29°41' W 095°01'0 0.2
2018-Jun-19 23:59N 29°41' W 095°00'1 2.8
2018-Jun-19 23:30N 29°41' W 094°59'0 0.8
2018-Jun-19 22:55N 29°41' W 094°59'0 0.1
2018-Jun-19 22:19N 29°41' W 094°59'0 0.0
2018-Jun-19 21:13N 29°41' W 094°59'1 0.2
2018-Jun-19 18:43N 29°42' W 094°59'1 2.1
2018-Jun-19 18:27N 29°41' W 094°59'0 0.0
2018-Jun-19 17:57N 29°41' W 094°59'0 0.0
2018-Jun-19 17:30N 29°41' W 094°59'0 0.1
2018-Jun-19 16:59N 29°41' W 094°59'0 1.0
2018-Jun-19 16:30N 29°41' W 094°59'1 0.9
2018-Jun-19 15:55N 29°41' W 094°59'2 0.8
2018-Jun-19 13:42N 29°42' W 095°01'310.4
2018-Jun-19 13:27N 29°41' W 094°59'4 7.7
2018-Jun-19 12:58N 29°37' W 094°59'2 3.8
2018-Jun-19 12:25N 29°37' W 095°01'0 0.0
2018-Jun-19 11:55N 29°37' W 095°01'0 0.0
2018-Jun-19 11:22N 29°37' W 095°01'0 0.0
2018-Jun-19 10:58N 29°37' W 095°01'0 0.0
2018-Jun-19 10:28N 29°37' W 095°01'0 0.0
2018-Jun-19 09:49N 29°37' W 095°01'0 0.0
2018-Jun-19 09:28N 29°37' W 095°01'0 0.0
2018-Jun-19 08:55N 29°37' W 095°01'0 0.0
2018-Jun-19 08:28N 29°37' W 095°01'0 0.0
2018-Jun-19 06:07N 29°37' W 095°01'0 0.0
2018-Jun-19 05:55N 29°37' W 095°01'0 0.0
2018-Jun-19 05:28N 29°37' W 095°01'1 2.1
2018-Jun-19 05:00N 29°37' W 094°60'0 0.0
2018-Jun-19 04:30N 29°37' W 094°60'1 1.9
2018-Jun-19 04:00N 29°37' W 095°01'1 1.6
2018-Jun-19 03:25N 29°37' W 094°60'0 0.0
2018-Jun-19 02:58N 29°37' W 094°60'0 0.0
2018-Jun-19 01:34N 29°37' W 094°60'0 0.0
2018-Jun-19 01:28N 29°37' W 094°60'0 0.0
2018-Jun-19 00:58N 29°37' W 094°60'0 0.0
2018-Jun-19 00:25N 29°37' W 094°60'0 0.0
2018-Jun-18 23:47N 29°37' W 094°60'0 1.4
2018-Jun-18 23:30N 29°37' W 095°00'0 0.1
2018-Jun-18 22:59N 29°37' W 095°00'1 1.5
2018-Jun-18 22:30N 29°37' W 095°01'1 2.3
2018-Jun-18 21:59N 29°37' W 094°60'0 0.0
2018-Jun-18 20:16N 29°37' W 094°60'0 0.0
2018-Jun-18 19:22N 29°37' W 094°60'0 0.0
2018-Jun-18 18:59N 29°37' W 094°60'2 4.4
2018-Jun-18 18:30N 29°37' W 094°57'2 4.9
2018-Jun-18 18:00N 29°37' W 095°00'0 0.4
2018-Jun-18 17:18N 29°37' W 094°60'0 0.0
2018-Jun-18 15:06N 29°37' W 094°60'0 0.0
2018-Jun-18 15:00N 29°37' W 094°60'2 3.1
2018-Jun-18 14:29N 29°37' W 094°58'2 3.9
2018-Jun-18 14:00N 29°37' W 095°00'0 0.0
2018-Jun-18 13:30N 29°37' W 095°00'1 1.6
2018-Jun-18 12:59N 29°37' W 095°01'0 0.0
2018-Jun-18 11:23N 29°37' W 095°01'0 0.0
2018-Jun-18 10:59N 29°37' W 095°01'0 0.0
2018-Jun-18 10:17N 29°37' W 095°01'0 0.0
2018-Jun-18 09:17N 29°37' W 095°01'0 0.0
2018-Jun-18 08:50N 29°37' W 095°01'0 0.0
2018-Jun-18 08:29N 29°37' W 095°01'0 0.0
2018-Jun-18 07:59N 29°37' W 095°01'0 0.0
2018-Jun-18 07:11N 29°37' W 095°01'0 0.0
2018-Jun-18 06:47N 29°37' W 095°01'0 0.0
2018-Jun-18 05:53N 29°37' W 095°01'0 0.0
2018-Jun-18 05:26N 29°37' W 095°01'0 0.0
2018-Jun-18 03:47N 29°37' W 095°01'0 0.0
2018-Jun-18 03:05N 29°37' W 095°01'0 0.1
2018-Jun-18 02:59N 29°37' W 095°01'0 0.0
2018-Jun-18 02:29N 29°37' W 095°01'0 0.0
2018-Jun-18 01:59N 29°37' W 095°01'1 1.2
2018-Jun-18 01:29N 29°37' W 095°00'0 0.1
2018-Jun-18 01:00N 29°37' W 095°00'0 0.2
2018-Jun-18 00:30N 29°37' W 095°01'1 0.4
2018-Jun-17 22:59N 29°37' W 094°60'0 0.0
2018-Jun-17 22:08N 29°37' W 094°60'0 0.0
2018-Jun-17 21:59N 29°37' W 094°60'0 0.0
2018-Jun-17 21:26N 29°37' W 094°60'0 0.0
2018-Jun-17 20:35N 29°37' W 094°60'0 0.0
2018-Jun-17 20:20N 29°37' W 094°60'0 0.0
2018-Jun-17 19:59N 29°37' W 094°60'0 0.0
2018-Jun-17 19:20N 29°37' W 094°60'0 0.0
2018-Jun-17 18:56N 29°37' W 094°60'0 0.0
2018-Jun-17 18:26N 29°37' W 094°60'0 0.0
2018-Jun-17 17:11N 29°37' W 094°60'0 0.0
2018-Jun-17 16:59N 29°37' W 094°60'0 0.0
2018-Jun-17 16:25N 29°37' W 094°60'0 0.8
2018-Jun-17 16:00N 29°37' W 095°00'1 1.8
2018-Jun-17 15:30N 29°37' W 095°01'1 3.0
2018-Jun-17 15:00N 29°37' W 094°60'2 2.1
2018-Jun-17 14:05N 29°38' W 094°58'1 9.7
2018-Jun-17 13:59N 29°39' W 094°58'3 1.6
2018-Jun-17 12:05N 29°41' W 094°59'0 0.2
2018-Jun-17 10:31N 29°42' W 094°60'010.4
2018-Jun-17 10:30N 29°42' W 094°59'1 0.1
2018-Jun-16 23:27N 29°41' W 094°59'1 1.9
2018-Jun-16 22:52N 29°41' W 095°00'1 0.5
2018-Jun-16 20:30N 29°41' W 094°59'4 8.5
2018-Jun-16 20:00N 29°37' W 094°57'2 5.0
2018-Jun-16 19:30N 29°37' W 095°00'0 0.4
2018-Jun-16 19:00N 29°37' W 094°60'0 0.0
2018-Jun-16 18:30N 29°37' W 094°60'2 3.8
2018-Jun-16 18:00N 29°37' W 094°58'1711.5
2018-Jun-16 16:32N 29°22' W 094°48'212.2
2018-Jun-16 16:24N 29°21' W 094°47'2 2.3
2018-Jun-16 15:39N 29°19' W 094°47'1 9.2
2018-Jun-16 15:30N 29°21' W 094°46'19 9.5
2018-Jun-16 13:29N 29°37' W 094°58'3 5.8
2018-Jun-16 12:58N 29°37' W 095°01'0 0.0
2018-Jun-16 12:28N 29°37' W 095°01'0 0.0
2018-Jun-16 11:58N 29°37' W 095°01'0 0.0
2018-Jun-16 11:28N 29°37' W 095°01'0 0.0
2018-Jun-16 10:55N 29°37' W 095°01'0 0.0
2018-Jun-16 10:28N 29°37' W 095°01'0 0.0
2018-Jun-16 09:58N 29°37' W 095°01'0 0.0
2018-Jun-16 09:25N 29°37' W 095°01'0 0.0
2018-Jun-16 08:58N 29°37' W 095°01'0 0.0
2018-Jun-16 08:28N 29°37' W 095°01'0 0.0
2018-Jun-16 07:58N 29°37' W 095°01'0 0.0
2018-Jun-16 07:28N 29°37' W 095°01'0 0.0
2018-Jun-16 06:58N 29°37' W 095°01'0 0.0
2018-Jun-16 06:28N 29°37' W 095°01'0 0.0
2018-Jun-16 05:58N 29°37' W 095°01'0 0.0
2018-Jun-16 05:28N 29°37' W 095°01'0 0.0
2018-Jun-16 04:58N 29°37' W 095°01'0 0.0
2018-Jun-16 04:25N 29°37' W 095°01'0 0.0
2018-Jun-16 03:55N 29°37' W 095°01'0 0.0
2018-Jun-16 03:28N 29°37' W 095°01'0 0.0
2018-Jun-16 02:58N 29°37' W 095°01'0 0.0
2018-Jun-16 02:28N 29°37' W 095°01'1 2.0
2018-Jun-16 02:00N 29°37' W 095°00'5 6.9
2018-Jun-16 01:20N 29°41' W 094°59'0 0.1
2018-Jun-15 22:09N 29°42' W 094°59'2 7.6
2018-Jun-15 21:56N 29°40' W 094°59'3 5.9
2018-Jun-15 21:21N 29°37' W 094°58'3 7.7
2018-Jun-15 20:58N 29°37' W 095°01'0 0.7
2018-Jun-15 20:30N 29°37' W 095°01'0 0.7
2018-Jun-15 20:00N 29°37' W 095°01'0 0.0
2018-Jun-15 19:28N 29°37' W 095°01'0 0.0
2018-Jun-15 18:58N 29°37' W 095°01'0 0.0
2018-Jun-15 18:25N 29°37' W 095°01'0 0.0
2018-Jun-15 17:58N 29°37' W 095°01'  
Track history (hours):
 
Tides and Currents Weather Stations Pressure Air Temp Water Temp Dewpoint Dewpoint Depression Visibility Wind Speed Wind Dir Waves Ship Positions

Hunter M

Owner: G & H Towing Company, Galveston, TX. More information available from US FCC via Universal Licensing System and Coast Guard Vessel Documentation Center.

Last reported at 2018-Jun-25 17:30 UTC. Time now 2018-Jun-25 17:50 UTC.
Position N 29°35' W 094°56'.

Length 30 m; draft 6.2 m.

Type: Tug. MMSI: 367402050.

Date/timePositionNaut miles runAvg speedWind from/ knotsBaromVisibWave heightAir tempDewpointWater temp
2018-Jun-25 17:30N 29°35' W 094°56'610.7
2018-Jun-25 16:58N 29°30' W 094°52'610.5
2018-Jun-25 16:22N 29°24' W 094°49'3 4.0
2018-Jun-25 15:42N 29°23' W 094°52'1 5.1
2018-Jun-25 15:30N 29°23' W 094°53'1 1.1
2018-Jun-25 14:57N 29°23' W 094°53'0 0.0
2018-Jun-25 14:29N 29°23' W 094°53'0 0.3
2018-Jun-25 13:47N 29°23' W 094°53'310.0
2018-Jun-25 13:30N 29°22' W 094°50'4 8.0
2018-Jun-25 13:00N 29°19' W 094°47'0 0.0
2018-Jun-25 12:26N 29°19' W 094°47'0 0.2
2018-Jun-25 12:00N 29°19' W 094°47'1 2.3
2018-Jun-25 11:30N 29°19' W 094°48'0 0.0
2018-Jun-25 11:00N 29°19' W 094°48'1 1.9
2018-Jun-25 10:30N 29°19' W 094°47'0 0.7
2018-Jun-25 10:00N 29°19' W 094°47'2 4.1
2018-Jun-25 09:28N 29°21' W 094°47'14 9.5
2018-Jun-25 07:57N 29°34' W 094°55'4 9.4
2018-Jun-25 07:30N 29°37' W 094°59'2 3.9
2018-Jun-25 07:00N 29°37' W 095°01'0 0.0
2018-Jun-25 06:30N 29°37' W 095°01'0 0.0
2018-Jun-25 06:00N 29°37' W 095°01'0 0.0
2018-Jun-25 05:30N 29°37' W 095°01'0 0.0
2018-Jun-25 05:00N 29°37' W 095°01'0 0.1
2018-Jun-25 04:30N 29°37' W 095°01'0 0.5
2018-Jun-25 04:00N 29°37' W 095°01'1 2.5
2018-Jun-25 03:30N 29°37' W 094°60'0 0.0
2018-Jun-25 03:00N 29°37' W 094°60'0 0.0
2018-Jun-25 02:30N 29°37' W 094°60'0 0.0
2018-Jun-25 02:00N 29°37' W 094°60'1 1.2
2018-Jun-25 01:30N 29°37' W 094°59'1 2.5
2018-Jun-25 01:00N 29°37' W 095°01'0 1.0
2018-Jun-25 00:30N 29°37' W 095°01'0 0.0
2018-Jun-24 23:59N 29°37' W 095°01'1 1.6
2018-Jun-24 23:30N 29°37' W 095°00'0 0.1
2018-Jun-24 23:00N 29°37' W 095°00'1 1.7
2018-Jun-24 22:30N 29°37' W 095°01'2 3.9
2018-Jun-24 22:00N 29°37' W 094°59'0 0.3
2018-Jun-24 21:27N 29°37' W 094°59'2 3.7
2018-Jun-24 21:00N 29°37' W 095°01'0 0.0
2018-Jun-24 20:30N 29°37' W 095°01'0 0.0
2018-Jun-24 20:00N 29°37' W 095°01'0 0.8
2018-Jun-24 19:30N 29°37' W 095°02'1 2.7
2018-Jun-24 18:59N 29°37' W 094°60'0 0.0
2018-Jun-24 18:29N 29°37' W 094°60'0 0.0
2018-Jun-24 17:59N 29°37' W 094°60'0 0.0
2018-Jun-24 17:29N 29°37' W 094°60'0 0.0
2018-Jun-24 16:59N 29°37' W 094°60'0 0.0
2018-Jun-24 16:29N 29°37' W 094°60'0 0.1
2018-Jun-24 16:01N 29°37' W 095°00'1 1.1
2018-Jun-24 15:30N 29°37' W 095°01'0 0.4
2018-Jun-24 15:01N 29°37' W 095°00'0 0.8
2018-Jun-24 14:28N 29°37' W 094°60'0 0.0
2018-Jun-24 13:58N 29°37' W 094°60'0 0.0
2018-Jun-24 13:28N 29°37' W 094°60'0 0.0
2018-Jun-24 12:55N 29°37' W 094°60'2 4.5
2018-Jun-24 12:30N 29°37' W 094°58'2 4.0
2018-Jun-24 12:00N 29°37' W 095°00'0 0.1
2018-Jun-24 11:30N 29°37' W 095°00'0 0.0
2018-Jun-24 11:01N 29°37' W 095°00'0 0.1
2018-Jun-24 10:30N 29°37' W 095°00'3 5.2
2018-Jun-24 09:59N 29°39' W 094°58'4 0.3
2018-Jun-23 21:29N 29°42' W 095°01'2 2.8
2018-Jun-23 20:53N 29°41' W 094°59'0 0.0
2018-Jun-23 19:59N 29°41' W 094°59'2 3.2
2018-Jun-23 19:29N 29°40' W 094°58'3 4.9
2018-Jun-23 18:50N 29°37' W 094°59'0 0.1
2018-Jun-23 18:28N 29°37' W 094°59'1 2.9
2018-Jun-23 18:00N 29°37' W 094°58'2 3.6
2018-Jun-23 17:30N 29°37' W 094°60'1 2.7
2018-Jun-23 17:00N 29°37' W 094°58'5 1.6
2018-Jun-23 14:08N 29°42' W 094°59'1 4.0
2018-Jun-23 13:59N 29°41' W 094°60'0 0.1
2018-Jun-23 13:30N 29°41' W 094°60'1 1.6
2018-Jun-23 12:59N 29°41' W 094°59'1 0.8
2018-Jun-23 11:13N 29°41' W 095°00'1 4.3
2018-Jun-23 11:01N 29°41' W 094°59'0 0.1
2018-Jun-23 10:18N 29°41' W 094°59'1 1.6
2018-Jun-23 09:39N 29°41' W 095°01'0 0.4
2018-Jun-23 09:25N 29°41' W 095°00'1 2.5
2018-Jun-23 09:00N 29°41' W 094°59'0 0.8
2018-Jun-23 08:30N 29°41' W 094°59'1 0.8
2018-Jun-23 07:53N 29°41' W 094°59'0 0.9
2018-Jun-23 07:29N 29°41' W 094°59'1 2.4
2018-Jun-23 06:58N 29°41' W 095°00'1 2.6
2018-Jun-23 06:30N 29°42' W 095°01'1 0.8
2018-Jun-23 05:49N 29°42' W 095°01'0 0.0
2018-Jun-23 05:28N 29°42' W 095°01'0 0.0
2018-Jun-23 04:58N 29°42' W 095°01'0 0.0
2018-Jun-23 04:28N 29°42' W 095°01'0 0.0
2018-Jun-23 03:52N 29°42' W 095°01'0 0.0
2018-Jun-23 03:28N 29°42' W 095°01'0 0.0
2018-Jun-23 02:58N 29°42' W 095°01'0 0.0
2018-Jun-22 13:51N 29°42' W 095°01'2 5.4
2018-Jun-22 13:29N 29°41' W 094°59'0 0.5
2018-Jun-22 13:00N 29°41' W 094°60'0 0.0
2018-Jun-22 12:19N 29°41' W 094°60'0 0.0
2018-Jun-22 12:00N 29°41' W 094°60'4 6.5
2018-Jun-22 11:20N 29°37' W 094°58'1 3.0
2018-Jun-22 10:53N 29°37' W 094°59'0 0.3
2018-Jun-22 10:26N 29°37' W 094°59'2 3.6
2018-Jun-22 10:00N 29°37' W 094°58'3 5.8
2018-Jun-22 09:29N 29°37' W 095°01'0 0.0
2018-Jun-22 08:59N 29°37' W 095°01'0 0.0
2018-Jun-22 08:20N 29°37' W 095°01'0 0.0
2018-Jun-22 07:59N 29°37' W 095°01'0 0.0
2018-Jun-22 06:35N 29°37' W 095°01'0 0.0
2018-Jun-22 06:08N 29°37' W 095°01'0 0.0
2018-Jun-22 05:41N 29°37' W 095°01'0 0.0
2018-Jun-22 05:23N 29°37' W 095°01'0 0.0
2018-Jun-22 04:56N 29°37' W 095°01'0 0.0
2018-Jun-22 04:11N 29°37' W 095°01'0 0.0
2018-Jun-22 03:56N 29°37' W 095°01'0 0.0
2018-Jun-22 03:23N 29°37' W 095°01'0 0.8
2018-Jun-22 03:00N 29°37' W 095°01'1 0.9
2018-Jun-22 02:26N 29°37' W 095°01'1 1.3
2018-Jun-22 02:00N 29°37' W 095°01'1 1.4
2018-Jun-22 01:30N 29°37' W 095°00'5 6.4
2018-Jun-22 00:46N 29°34' W 094°56'1 3.3
2018-Jun-22 00:22N 29°33' W 094°55'0 0.4
2018-Jun-21 23:57N 29°33' W 094°55'4 3.3
2018-Jun-21 22:54N 29°30' W 094°52'4 9.4
2018-Jun-21 22:30N 29°27' W 094°51'5 9.6
2018-Jun-21 21:59N 29°22' W 094°48'2 3.8
2018-Jun-21 21:28N 29°22' W 094°51'2 4.7
2018-Jun-21 20:57N 29°23' W 094°53'0 0.3
2018-Jun-21 20:30N 29°23' W 094°53'1 2.0
2018-Jun-21 19:54N 29°23' W 094°52'3 6.5
2018-Jun-21 19:30N 29°22' W 094°49'3 5.1
2018-Jun-21 18:59N 29°20' W 094°46'1 2.3
2018-Jun-21 18:25N 29°19' W 094°47'0 0.0
2018-Jun-21 17:52N 29°19' W 094°47'2 4.8
2018-Jun-21 17:30N 29°21' W 094°47'18 9.5
2018-Jun-21 15:35N 29°37' W 094°57'110.3
2018-Jun-21 15:27N 29°38' W 094°58'3 0.8
2018-Jun-21 11:36N 29°41' W 094°59'0 5.6
2018-Jun-21 11:31N 29°41' W 094°59'7 1.2
2018-Jun-21 05:58N 29°45' W 095°06'5 0.7
2018-Jun-20 22:13N 29°42' W 095°01'2 7.9
2018-Jun-20 22:00N 29°41' W 094°59'0 0.3
2018-Jun-20 21:29N 29°41' W 094°59'2 3.8
2018-Jun-20 21:00N 29°39' W 094°58'2 1.3
2018-Jun-20 19:34N 29°41' W 094°60'1 7.3
2018-Jun-20 19:28N 29°41' W 094°59'5 9.4
2018-Jun-20 18:59N 29°36' W 094°57'3 5.6
2018-Jun-20 18:30N 29°37' W 095°00'0 0.3
2018-Jun-20 17:59N 29°37' W 095°00'1 1.2
2018-Jun-20 17:28N 29°37' W 095°01'0 0.0
2018-Jun-20 16:58N 29°37' W 095°01'0 0.0
2018-Jun-20 16:25N 29°37' W 095°01'1 3.1
2018-Jun-20 16:00N 29°37' W 094°60'4 6.4
2018-Jun-20 15:22N 29°41' W 094°60'1 1.0
2018-Jun-20 14:49N 29°41' W 095°00'0 0.8
2018-Jun-20 14:30N 29°41' W 095°00'2 3.7
2018-Jun-20 14:01N 29°40' W 094°58'2 3.1
2018-Jun-20 13:30N 29°41' W 094°60'0 0.0
2018-Jun-20 13:00N 29°41' W 094°60'0 0.0
2018-Jun-20 11:53N 29°41' W 094°60'0 0.1
2018-Jun-20 07:28N 29°41' W 094°59'0 0.0
2018-Jun-20 06:58N 29°41' W 094°59'0 0.0
2018-Jun-20 06:28N 29°41' W 094°59'0 0.0
2018-Jun-20 05:58N 29°41' W 094°59'0 0.0
2018-Jun-20 05:25N 29°41' W 094°59'0 0.0
2018-Jun-20 04:58N 29°41' W 094°59'0 1.0
2018-Jun-20 04:30N 29°41' W 094°59'1 2.2
2018-Jun-20 03:56N 29°41' W 095°00'1 1.7
2018-Jun-20 03:29N 29°41' W 094°59'0 0.0
2018-Jun-20 02:59N 29°41' W 094°59'0 0.0
2018-Jun-20 02:29N 29°41' W 094°59'0 0.0
2018-Jun-20 01:59N 29°41' W 094°59'0 0.0
2018-Jun-20 01:29N 29°41' W 094°59'0 0.0
2018-Jun-20 00:56N 29°41' W 094°59'1 2.0
2018-Jun-20 00:26N 29°41' W 095°01'0 0.2
2018-Jun-19 23:59N 29°41' W 095°00'1 2.8
2018-Jun-19 23:30N 29°41' W 094°59'0 0.8
2018-Jun-19 22:55N 29°41' W 094°59'0 0.1
2018-Jun-19 22:19N 29°41' W 094°59'0 0.0
2018-Jun-19 21:13N 29°41' W 094°59'1 0.2
2018-Jun-19 18:43N 29°42' W 094°59'1 2.1
2018-Jun-19 18:27N 29°41' W 094°59'0 0.0
2018-Jun-19 17:57N 29°41' W 094°59'0 0.0
2018-Jun-19 17:30N 29°41' W 094°59'0 0.1
2018-Jun-19 16:59N 29°41' W 094°59'0 1.0
2018-Jun-19 16:30N 29°41' W 094°59'1 0.9
2018-Jun-19 15:55N 29°41' W 094°59'2 0.8
2018-Jun-19 13:42N 29°42' W 095°01'310.4
2018-Jun-19 13:27N 29°41' W 094°59'4 7.7
2018-Jun-19 12:58N 29°37' W 094°59'2 3.8
2018-Jun-19 12:25N 29°37' W 095°01'0 0.0
2018-Jun-19 11:55N 29°37' W 095°01'0 0.0
2018-Jun-19 11:22N 29°37' W 095°01'0 0.0
2018-Jun-19 10:58N 29°37' W 095°01'0 0.0
2018-Jun-19 10:28N 29°37' W 095°01'0 0.0
2018-Jun-19 09:49N 29°37' W 095°01'0 0.0
2018-Jun-19 09:28N 29°37' W 095°01'0 0.0
2018-Jun-19 08:55N 29°37' W 095°01'0 0.0
2018-Jun-19 08:28N 29°37' W 095°01'0 0.0
2018-Jun-19 06:07N 29°37' W 095°01'0 0.0
2018-Jun-19 05:55N 29°37' W 095°01'0 0.0
2018-Jun-19 05:28N 29°37' W 095°01'1 2.1
2018-Jun-19 05:00N 29°37' W 094°60'0 0.0
2018-Jun-19 04:30N 29°37' W 094°60'1 1.9
2018-Jun-19 04:00N 29°37' W 095°01'1 1.6
2018-Jun-19 03:25N 29°37' W 094°60'0 0.0
2018-Jun-19 02:58N 29°37' W 094°60'0 0.0
2018-Jun-19 01:34N 29°37' W 094°60'0 0.0
2018-Jun-19 01:28N 29°37' W 094°60'0 0.0
2018-Jun-19 00:58N 29°37' W 094°60'0 0.0
2018-Jun-19 00:25N 29°37' W 094°60'0 0.0
2018-Jun-18 23:47N 29°37' W 094°60'0 1.4
2018-Jun-18 23:30N 29°37' W 095°00'0 0.1
2018-Jun-18 22:59N 29°37' W 095°00'1 1.5
2018-Jun-18 22:30N 29°37' W 095°01'1 2.3
2018-Jun-18 21:59N 29°37' W 094°60'0 0.0
2018-Jun-18 20:16N 29°37' W 094°60'0 0.0
2018-Jun-18 19:22N 29°37' W 094°60'0 0.0
2018-Jun-18 18:59N 29°37' W 094°60'2 4.4
2018-Jun-18 18:30N 29°37' W 094°57'2 4.9
2018-Jun-18 18:00N 29°37' W 095°00'0 0.4
2018-Jun-18 17:18N 29°37' W 094°60'0 0.0
2018-Jun-18 15:06N 29°37' W 094°60'0 0.0
2018-Jun-18 15:00N 29°37' W 094°60'2 3.1
2018-Jun-18 14:29N 29°37' W 094°58'2 3.9
2018-Jun-18 14:00N 29°37' W 095°00'0 0.0
2018-Jun-18 13:30N 29°37' W 095°00'1 1.6
2018-Jun-18 12:59N 29°37' W 095°01'0 0.0
2018-Jun-18 11:23N 29°37' W 095°01'0 0.0
2018-Jun-18 10:59N 29°37' W 095°01'0 0.0
2018-Jun-18 10:17N 29°37' W 095°01'0 0.0
2018-Jun-18 09:17N 29°37' W 095°01'0 0.0
2018-Jun-18 08:50N 29°37' W 095°01'0 0.0
2018-Jun-18 08:29N 29°37' W 095°01'0 0.0
2018-Jun-18 07:59N 29°37' W 095°01'0 0.0
2018-Jun-18 07:11N 29°37' W 095°01'0 0.0
2018-Jun-18 06:47N 29°37' W 095°01'0 0.0
2018-Jun-18 05:53N 29°37' W 095°01'0 0.0
2018-Jun-18 05:26N 29°37' W 095°01'0 0.0
2018-Jun-18 03:47N 29°37' W 095°01'0 0.0
2018-Jun-18 03:05N 29°37' W 095°01'0 0.1
2018-Jun-18 02:59N 29°37' W 095°01'0 0.0
2018-Jun-18 02:29N 29°37' W 095°01'0 0.0
2018-Jun-18 01:59N 29°37' W 095°01'1 1.2
2018-Jun-18 01:29N 29°37' W 095°00'0 0.1
2018-Jun-18 01:00N 29°37' W 095°00'0 0.2
2018-Jun-18 00:30N 29°37' W 095°01'1 0.4
2018-Jun-17 22:59N 29°37' W 094°60'0 0.0
2018-Jun-17 22:08N 29°37' W 094°60'0 0.0
2018-Jun-17 21:59N 29°37' W 094°60'0 0.0
2018-Jun-17 21:26N 29°37' W 094°60'0 0.0
2018-Jun-17 20:35N 29°37' W 094°60'0 0.0
2018-Jun-17 20:20N 29°37' W 094°60'0 0.0
2018-Jun-17 19:59N 29°37' W 094°60'0 0.0
2018-Jun-17 19:20N 29°37' W 094°60'0 0.0
2018-Jun-17 18:56N 29°37' W 094°60'0 0.0
2018-Jun-17 18:26N 29°37' W 094°60'0 0.0
2018-Jun-17 17:11N 29°37' W 094°60'0 0.0
2018-Jun-17 16:59N 29°37' W 094°60'0 0.0
2018-Jun-17 16:25N 29°37' W 094°60'0 0.8
2018-Jun-17 16:00N 29°37' W 095°00'1 1.8
2018-Jun-17 15:30N 29°37' W 095°01'1 3.0
2018-Jun-17 15:00N 29°37' W 094°60'2 2.1
2018-Jun-17 14:05N 29°38' W 094°58'1 9.7
2018-Jun-17 13:59N 29°39' W 094°58'3 1.6
2018-Jun-17 12:05N 29°41' W 094°59'0 0.2
2018-Jun-17 10:31N 29°42' W 094°60'010.4
2018-Jun-17 10:30N 29°42' W 094°59'1 0.1
2018-Jun-16 23:27N 29°41' W 094°59'1 1.9
2018-Jun-16 22:52N 29°41' W 095°00'1 0.5
2018-Jun-16 20:30N 29°41' W 094°59'4 8.5
2018-Jun-16 20:00N 29°37' W 094°57'2 5.0
2018-Jun-16 19:30N 29°37' W 095°00'0 0.4
2018-Jun-16 19:00N 29°37' W 094°60'0 0.0
2018-Jun-16 18:30N 29°37' W 094°60'2 3.8
2018-Jun-16 18:00N 29°37' W 094°58'1711.5
2018-Jun-16 16:32N 29°22' W 094°48'212.2
2018-Jun-16 16:24N 29°21' W 094°47'2 2.3
2018-Jun-16 15:39N 29°19' W 094°47'1 9.2
2018-Jun-16 15:30N 29°21' W 094°46'19 9.5
2018-Jun-16 13:29N 29°37' W 094°58'3 5.8
2018-Jun-16 12:58N 29°37' W 095°01'0 0.0
2018-Jun-16 12:28N 29°37' W 095°01'0 0.0
2018-Jun-16 11:58N 29°37' W 095°01'0 0.0
2018-Jun-16 11:28N 29°37' W 095°01'0 0.0
2018-Jun-16 10:55N 29°37' W 095°01'0 0.0
2018-Jun-16 10:28N 29°37' W 095°01'0 0.0
2018-Jun-16 09:58N 29°37' W 095°01'0 0.0
2018-Jun-16 09:25N 29°37' W 095°01'0 0.0
2018-Jun-16 08:58N 29°37' W 095°01'0 0.0
2018-Jun-16 08:28N 29°37' W 095°01'0 0.0
2018-Jun-16 07:58N 29°37' W 095°01'0 0.0
2018-Jun-16 07:28N 29°37' W 095°01'0 0.0
2018-Jun-16 06:58N 29°37' W 095°01'0 0.0
2018-Jun-16 06:28N 29°37' W 095°01'0 0.0
2018-Jun-16 05:58N 29°37' W 095°01'0 0.0
2018-Jun-16 05:28N 29°37' W 095°01'0 0.0
2018-Jun-16 04:58N 29°37' W 095°01'0 0.0
2018-Jun-16 04:25N 29°37' W 095°01'0 0.0
2018-Jun-16 03:55N 29°37' W 095°01'0 0.0
2018-Jun-16 03:28N 29°37' W 095°01'0 0.0
2018-Jun-16 02:58N 29°37' W 095°01'0 0.0
2018-Jun-16 02:28N 29°37' W 095°01'1 2.0
2018-Jun-16 02:00N 29°37' W 095°00'5 6.9
2018-Jun-16 01:20N 29°41' W 094°59'0 0.1
2018-Jun-15 22:09N 29°42' W 094°59'2 7.6
2018-Jun-15 21:56N 29°40' W 094°59'3 5.9
2018-Jun-15 21:21N 29°37' W 094°58'3 7.7
2018-Jun-15 20:58N 29°37' W 095°01'0 0.7
2018-Jun-15 20:30N 29°37' W 095°01'0 0.7
2018-Jun-15 20:00N 29°37' W 095°01'0 0.0
2018-Jun-15 19:28N 29°37' W 095°01'0 0.0
2018-Jun-15 18:58N 29°37' W 095°01'0 0.0
2018-Jun-15 18:25N 29°37' W 095°01'0 0.0
2018-Jun-15 17:58N 29°37' W 095°01'  

Dump ship's entire track history